Time;durP1;ratioP1;P1;durP2;ratioP2;P2;SDS_P1;SDS_P2;PMS_P1;PMS_P2;Temp;Humidity;BMP_temperature;BMP_pressure;BME280_temperature;BME280_humidity;BME280_pressure;Samples;Min_cycle;Max_cycle;Signal;HPM_P1;HPM_P2
2021/07/15 00:00:49;;;;;;;;;7.33;7.33;;;;;19.07;64.52;101396.81;5033548;28;45324;-62
2021/07/15 00:03:18;;;;;;;;;10.00;8.00;;;;;19.05;64.41;101384.63;5033655;28;46373;-63
2021/07/15 00:05:44;;;;;;;;;8.00;7.00;;;;;19.03;64.63;101387.47;5033669;28;45400;-63
2021/07/15 00:08:14;;;;;;;;;14.00;9.00;;;;;19.01;64.55;101388.59;5034131;28;45429;-63
2021/07/15 00:10:43;;;;;;;;;15.00;9.67;;;;;18.98;65.26;101379.09;5033809;28;45450;-64
2021/07/15 00:13:10;;;;;;;;;10.00;10.00;;;;;19.01;65.25;101383.28;5031663;28;46572;-61
2021/07/15 00:15:39;;;;;;;;;6.00;6.00;;;;;19.02;65.02;101371.63;5033647;28;45430;-64
2021/07/15 00:18:10;;;;;;;;;9.33;9.33;;;;;19.02;64.63;101379.59;5032006;28;45395;-63
2021/07/15 00:20:40;;;;;;;;;7.33;7.33;;;;;19.01;64.84;101373.44;5033211;28;45501;-62
2021/07/15 00:23:06;;;;;;;;;8.00;8.00;;;;;19.01;64.64;101378.78;5033849;28;46490;-63
2021/07/15 00:25:32;;;;;;;;;10.67;8.67;;;;;19.01;65.13;101378.78;5033748;28;45476;-63
2021/07/15 00:27:57;;;;;;;;;10.67;8.00;;;;;19.03;64.89;101397.25;5033968;28;45824;-63
2021/07/15 00:30:23;;;;;;;;;9.33;8.00;;;;;19.06;64.86;101399.63;5033429;28;45463;-63
2021/07/15 00:32:49;;;;;;;;;3.00;3.00;;;;;19.08;64.69;101394.97;5032966;28;46047;-63
2021/07/15 00:35:14;;;;;;;;;7.33;6.67;;;;;19.07;64.63;101394.16;5033846;28;45533;-62
2021/07/15 00:37:44;;;;;;;;;8.00;4.00;;;;;19.08;64.53;101402.97;5032753;28;45442;-63
2021/07/15 00:40:11;;;;;;;;;11.00;9.67;;;;;19.08;64.87;101400.28;5031499;28;45381;-63
2021/07/15 00:42:37;;;;;;;;;8.67;7.00;;;;;19.06;65.04;101396.97;5032125;28;46320;-64
2021/07/15 00:45:05;;;;;;;;;10.67;10.33;;;;;19.05;64.83;101400.63;5033971;28;45308;-63
2021/07/15 00:47:30;;;;;;;;;14.00;11.00;;;;;19.02;64.74;101406.22;5033826;28;45430;-64
2021/07/15 00:49:56;;;;;;;;;15.00;11.33;;;;;19.00;65.11;101400.22;5034618;28;45376;-62
2021/07/15 00:52:22;;;;;;;;;9.33;9.00;;;;;18.98;65.08;101407.53;5034524;28;46113;-63
2021/07/15 00:54:47;;;;;;;;;12.00;11.00;;;;;18.99;65.10;101398.56;5033842;28;45495;-62
2021/07/15 00:57:13;;;;;;;;;10.33;10.00;;;;;19.02;64.87;101395.56;5033289;28;45429;-61
2021/07/15 00:59:38;;;;;;;;;12.67;9.33;;;;;18.99;64.94;101402.03;5033115;28;45422;-63
2021/07/15 01:02:04;;;;;;;;;13.33;10.67;;;;;19.03;65.12;101407.91;5035783;28;45576;-63
2021/07/15 01:04:31;;;;;;;;;15.33;11.00;;;;;19.03;65.14;101398.09;5052525;28;45382;-61
2021/07/15 01:06:57;;;;;;;;;11.67;10.67;;;;;19.02;65.28;101400.91;5036815;28;45411;-63
2021/07/15 01:09:24;;;;;;;;;12.00;9.00;;;;;18.99;65.32;101402.03;5036280;28;45449;-63
2021/07/15 01:12:02;;;;;;;;;12.67;11.00;;;;;18.99;65.24;101401.22;5036394;28;45575;-63
2021/07/15 01:14:33;;;;;;;;;11.67;9.00;;;;;18.95;65.18;101401.53;5025027;28;45453;-62
2021/07/15 01:17:11;;;;;;;;;12.33;10.67;;;;;18.91;65.53;101408.13;5020705;28;45529;-62
2021/07/15 01:19:37;;;;;;;;;12.33;10.00;;;;;18.89;65.20;101412.78;5034062;28;45398;-62
2021/07/15 01:22:22;;;;;;;;;15.67;12.33;;;;;18.89;65.65;101406.56;5036964;28;46398;-64
2021/07/15 01:25:02;;;;;;;;;14.67;10.67;;;;;18.87;65.59;101404.06;5036170;28;45443;-63
2021/07/15 01:27:47;;;;;;;;;10.33;10.00;;;;;18.85;66.00;101382.09;5035832;28;45391;-64
2021/07/15 01:30:21;;;;;;;;;12.33;9.33;;;;;18.89;65.56;101391.50;5036287;28;45486;-62
2021/07/15 01:33:16;;;;;;;;;13.67;10.00;;;;;18.88;65.54;101400.44;5035821;28;46494;-62
2021/07/15 01:35:58;;;;;;;;;11.00;11.00;;;;;18.84;65.56;101393.75;5035735;28;45526;-62
2021/07/15 01:38:31;;;;;;;;;11.33;11.33;;;;;18.85;66.09;101408.72;5035212;28;45621;-63
2021/07/15 01:41:02;;;;;;;;;10.00;10.00;;;;;18.88;65.98;101395.09;5033027;28;45475;-63
2021/07/15 01:43:34;;;;;;;;;13.67;10.33;;;;;18.90;65.50;101398.50;5032516;28;45396;-63
2021/07/15 01:46:02;;;;;;;;;11.33;11.33;;;;;18.90;65.93;101411.81;5036211;28;45447;-61
2021/07/15 01:48:29;;;;;;;;;12.00;11.00;;;;;18.86;66.00;101405.06;5035700;28;45428;-61
2021/07/15 01:50:56;;;;;;;;;12.00;9.00;;;;;18.84;65.78;101408.84;5034869;28;45492;-61
2021/07/15 01:53:21;;;;;;;;;13.00;12.33;;;;;18.82;65.95;101395.69;5036121;28;47133;-61
2021/07/15 01:55:48;;;;;;;;;15.00;11.33;;;;;18.83;65.71;101402.72;5035561;28;45464;-61
2021/07/15 01:58:14;;;;;;;;;12.00;12.00;;;;;18.80;65.89;101401.19;5036414;28;45528;-62
2021/07/15 02:00:42;;;;;;;;;12.00;10.33;;;;;18.75;66.09;101399.97;5034859;28;45343;-62
2021/07/15 02:03:09;;;;;;;;;12.00;12.00;;;;;18.73;66.28;101401.94;5035437;28;45538;-62
2021/07/15 02:05:36;;;;;;;;;11.67;11.00;;;;;18.70;66.55;101399.59;5035428;28;45381;-61
2021/07/15 02:08:04;;;;;;;;;18.00;13.00;;;;;18.68;66.50;101401.56;5035172;28;45344;-63
2021/07/15 02:10:32;;;;;;;;;14.67;11.67;;;;;18.66;66.23;101412.34;5035344;28;45420;-61
2021/07/15 02:12:58;;;;;;;;;12.33;12.33;;;;;18.60;66.49;101403.16;5034746;28;45347;-61
2021/07/15 02:15:26;;;;;;;;;9.33;7.33;;;;;18.57;66.75;101400.78;5035378;28;45525;-61
2021/07/15 02:17:53;;;;;;;;;15.33;13.67;;;;;18.61;66.61;101402.16;5033961;28;45604;-61
2021/07/15 02:20:21;;;;;;;;;14.00;11.33;;;;;18.60;66.38;101403.16;5035046;28;45360;-61
2021/07/15 02:22:49;;;;;;;;;12.33;11.67;;;;;18.58;66.40;101398.97;5034053;28;46312;-61
2021/07/15 02:25:16;;;;;;;;;14.33;12.00;;;;;18.55;66.77;101393.94;5035933;28;45368;-62
2021/07/15 02:27:45;;;;;;;;;14.67;14.67;;;;;18.50;67.26;101386.41;5034851;28;45395;-62
2021/07/15 02:30:14;;;;;;;;;9.33;9.33;;;;;18.51;66.90;101387.25;5035393;28;45352;-63
2021/07/15 02:32:42;;;;;;;;;16.00;13.33;;;;;18.53;67.30;101391.44;5035068;28;47182;-62
2021/07/15 02:35:12;;;;;;;;;15.00;14.67;;;;;18.53;66.87;101391.44;5035306;28;45409;-62
2021/07/15 02:37:41;;;;;;;;;13.67;13.33;;;;;18.55;66.94;101392.13;5065734;28;45594;-63
2021/07/15 02:40:12;;;;;;;;;15.00;11.67;;;;;18.54;67.17;101390.44;5034082;28;45422;-62
2021/07/15 02:42:45;;;;;;;;;17.00;12.33;;;;;18.53;67.16;101391.44;5034050;28;47649;-64
2021/07/15 02:45:14;;;;;;;;;12.33;11.33;;;;;18.50;67.06;101390.88;5034804;28;45346;-63
2021/07/15 02:47:41;;;;;;;;;18.67;13.33;;;;;18.46;67.14;101390.34;5025324;28;45447;-62
2021/07/15 02:50:08;;;;;;;;;10.00;10.00;;;;;18.44;67.20;101392.34;5035154;28;45359;-64
2021/07/15 02:52:33;;;;;;;;;15.00;12.67;;;;;18.41;67.05;101381.97;5034794;28;45584;-63
2021/07/15 02:54:59;;;;;;;;;13.67;13.33;;;;;18.39;67.33;101381.31;5035318;28;45360;-63
2021/07/15 02:57:33;;;;;;;;;18.67;16.67;;;;;18.37;67.78;101385.94;5034623;28;45814;-61
2021/07/15 03:00:10;;;;;;;;;14.33;13.33;;;;;18.36;67.76;101373.59;5034651;28;45332;-62
2021/07/15 03:03:15;;;;;;;;;15.33;14.00;;;;;18.36;68.05;101370.94;5034525;28;46654;-62
2021/07/15 03:06:00;;;;;;;;;15.33;11.33;;;;;18.42;67.35;101389.84;5034671;28;45582;-62
2021/07/15 03:08:32;;;;;;;;;13.00;11.00;;;;;18.43;67.57;101378.19;5033751;28;45558;-64
2021/07/15 03:11:01;;;;;;;;;16.00;12.00;;;;;18.46;67.40;101382.38;5026156;28;45506;-64
2021/07/15 03:13:27;;;;;;;;;13.00;13.00;;;;;18.46;67.12;101380.56;5034890;28;45499;-64
2021/07/15 03:15:52;;;;;;;;;11.67;10.00;;;;;18.47;67.63;101384.03;5034687;28;45620;-64
2021/07/15 03:18:20;;;;;;;;;16.33;14.00;;;;;18.51;67.43;101376.59;5033636;28;45297;-63
2021/07/15 03:20:47;;;;;;;;;16.67;13.67;;;;;18.57;67.19;101379.50;5024782;28;45435;-63
2021/07/15 03:23:16;;;;;;;;;17.00;14.33;;;;;18.56;67.28;101391.13;5033075;28;46512;-63
2021/07/15 03:25:47;;;;;;;;;15.67;15.33;;;;;18.54;67.12;101390.44;5033403;28;45265;-63
2021/07/15 03:28:15;;;;;;;;;17.00;14.67;;;;;18.58;67.40;101386.50;5030784;28;45529;-64
2021/07/15 03:30:40;;;;;;;;;15.33;9.67;;;;;18.59;67.07;101385.53;5034300;28;45589;-64
2021/07/15 03:33:06;;;;;;;;;14.33;14.00;;;;;18.56;67.34;101390.28;5034144;28;45411;-63
2021/07/15 03:35:33;;;;;;;;;16.67;15.33;;;;;18.57;67.23;101386.66;5033982;28;45612;-63
2021/07/15 03:37:59;;;;;;;;;15.33;11.67;;;;;18.59;67.27;101392.66;5034780;28;45367;-63
2021/07/15 03:40:27;;;;;;;;;15.00;12.33;;;;;18.58;67.17;101383.84;5030558;28;45304;-63
2021/07/15 03:42:54;;;;;;;;;14.33;12.67;;;;;18.57;67.60;101390.13;5034071;28;46425;-63
2021/07/15 03:45:21;;;;;;;;;16.33;14.33;;;;;18.54;67.37;101398.44;5034086;28;45556;-63
2021/07/15 03:47:49;;;;;;;;;12.00;12.00;;;;;18.51;67.41;101392.56;5033637;28;45284;-63
2021/07/15 03:50:20;;;;;;;;;14.00;14.00;;;;;18.53;67.47;101394.09;5034389;28;45566;-63
2021/07/15 03:52:49;;;;;;;;;16.67;15.00;;;;;18.51;67.50;101393.41;5033440;28;46685;-63
2021/07/15 03:55:17;;;;;;;;;14.67;14.00;;;;;18.48;67.44;101383.06;5034265;28;45415;-63
2021/07/15 03:57:45;;;;;;;;;15.00;14.00;;;;;18.47;67.75;101392.88;5034082;28;45391;-63
2021/07/15 04:00:12;;;;;;;;;16.33;15.33;;;;;18.46;68.00;101385.88;5033332;28;45529;-63
2021/07/15 04:02:39;;;;;;;;;13.67;12.33;;;;;18.45;67.69;101384.19;5033484;28;46679;-64
2021/07/15 04:05:06;;;;;;;;;16.67;15.33;;;;;18.48;67.66;101393.69;5034022;28;45497;-63
2021/07/15 04:07:33;;;;;;;;;16.33;13.00;;;;;18.48;67.51;101394.53;5032372;28;45397;-63
2021/07/15 04:09:59;;;;;;;;;20.00;16.00;;;;;18.50;67.90;101393.56;5034110;28;45313;-64
2021/07/15 04:12:26;;;;;;;;;15.33;15.00;;;;;18.58;67.73;101389.16;5032445;28;45853;-63
2021/07/15 04:15:00;;;;;;;;;14.67;14.33;;;;;18.67;67.67;101389.22;5033617;28;45468;-62
2021/07/15 04:17:31;;;;;;;;;16.00;15.33;;;;;18.74;67.38;101399.13;5033157;28;45442;-62
2021/07/15 04:19:59;;;;;;;;;13.00;11.00;;;;;18.75;67.00;101400.81;5017657;28;45250;-64
2021/07/15 04:22:28;;;;;;;;;11.33;11.33;;;;;18.77;67.23;101401.50;5029653;28;46373;-63
2021/07/15 04:24:55;;;;;;;;;13.67;11.00;;;;;18.80;67.12;101403.84;5033156;28;45363;-63
2021/07/15 04:27:23;;;;;;;;;10.67;8.00;;;;;18.81;66.92;101404.66;5032807;28;45539;-63
2021/07/15 04:29:49;;;;;;;;;14.67;14.67;;;;;18.79;66.80;101401.34;5033549;28;45466;-64
2021/07/15 04:32:26;;;;;;;;;14.00;11.67;;;;;18.77;67.01;101414.81;5033366;28;45975;-63
2021/07/15 04:34:54;;;;;;;;;10.33;10.00;;;;;18.74;67.16;101411.59;5033774;28;45346;-64
2021/07/15 04:37:21;;;;;;;;;21.33;17.00;;;;;18.72;67.07;101400.25;5037957;28;45432;-64
2021/07/15 04:39:47;;;;;;;;;14.33;12.00;;;;;18.66;66.96;101408.88;5037177;28;45424;-64
2021/07/15 04:42:14;;;;;;;;;18.33;15.33;;;;;18.69;67.24;101401.41;5036593;28;46664;-63
2021/07/15 04:44:41;;;;;;;;;14.33;14.00;;;;;18.70;67.47;101407.56;5037110;28;45837;-63
2021/07/15 04:47:08;;;;;;;;;12.33;11.33;;;;;18.72;66.87;101413.56;5036964;28;45462;-62
2021/07/15 04:49:33;;;;;;;;;14.00;14.00;;;;;18.68;67.11;101413.06;5035562;28;45454;-65
2021/07/15 04:52:01;;;;;;;;;17.33;13.67;;;;;18.68;67.06;101404.22;5036667;28;47350;-64
2021/07/15 04:54:28;;;;;;;;;13.33;10.33;;;;;18.72;66.88;101410.91;5036491;28;45550;-64
2021/07/15 04:56:54;;;;;;;;;14.67;14.33;;;;;18.76;67.27;101409.59;5018930;28;45362;-63
2021/07/15 04:59:20;;;;;;;;;13.67;13.33;;;;;18.79;66.83;101409.31;5036680;28;45529;-65
2021/07/15 05:01:46;;;;;;;;;18.67;14.00;;;;;18.75;66.76;101415.94;5027703;28;45410;-62
2021/07/15 05:04:12;;;;;;;;;20.33;14.00;;;;;18.69;66.99;101421.84;5036907;28;45358;-63
2021/07/15 05:06:37;;;;;;;;;14.67;12.00;;;;;18.70;66.99;101415.56;5036352;28;45514;-64
2021/07/15 05:09:03;;;;;;;;;16.00;12.67;;;;;18.72;67.41;101421.56;5036329;28;45564;-62
2021/07/15 05:11:28;;;;;;;;;15.00;11.67;;;;;18.76;67.33;101414.94;5036291;28;45593;-62
2021/07/15 05:13:54;;;;;;;;;17.33;15.00;;;;;18.80;66.89;101408.34;5036232;28;45340;-62
2021/07/15 05:16:20;;;;;;;;;16.00;12.67;;;;;18.81;67.01;101415.31;5037234;28;45654;-63
2021/07/15 05:18:46;;;;;;;;;11.67;11.67;;;;;18.81;66.79;101410.00;5035067;28;46825;-64
2021/07/15 05:21:11;;;;;;;;;14.67;12.00;;;;;18.82;67.04;101414.34;5036147;28;47076;-62
2021/07/15 05:23:37;;;;;;;;;15.00;13.00;;;;;18.83;67.11;101415.19;5035906;28;45462;-62
2021/07/15 05:26:02;;;;;;;;;25.67;18.67;;;;;18.88;66.90;101415.56;5036407;28;45471;-64
2021/07/15 05:28:28;;;;;;;;;17.00;15.33;;;;;18.91;66.56;101416.13;5036842;28;45355;-63
2021/07/15 05:30:53;;;;;;;;;15.00;12.00;;;;;18.94;66.70;101414.97;5035767;28;46527;-63
2021/07/15 05:33:19;;;;;;;;;16.33;15.67;;;;;18.92;66.68;101423.13;5035696;28;45490;-64
2021/07/15 05:35:44;;;;;;;;;17.33;15.33;;;;;18.89;66.33;101427.88;5036001;28;45423;-63
2021/07/15 05:38:10;;;;;;;;;18.67;14.67;;;;;18.87;66.25;101428.03;5035650;28;45367;-63
2021/07/15 05:40:35;;;;;;;;;14.67;13.67;;;;;18.87;66.57;101424.53;5036299;28;45564;-63
2021/07/15 05:43:01;;;;;;;;;19.67;14.67;;;;;18.85;66.43;101427.34;5035772;28;45336;-64
2021/07/15 05:45:26;;;;;;;;;16.00;12.00;;;;;18.85;66.80;101427.34;5035831;28;45317;-65
2021/07/15 05:47:52;;;;;;;;;15.67;13.33;;;;;18.91;66.80;101434.75;5034541;28;45312;-62
2021/07/15 05:50:18;;;;;;;;;17.33;12.67;;;;;18.98;66.91;101428.81;5036203;28;45520;-65
2021/07/15 05:52:43;;;;;;;;;14.00;12.00;;;;;19.02;66.09;101435.50;5035659;28;45906;-64
2021/07/15 05:55:10;;;;;;;;;13.00;12.00;;;;;19.01;66.13;101433.88;5034197;28;45537;-63
2021/07/15 05:57:36;;;;;;;;;15.00;14.33;;;;;18.99;65.92;101436.66;5035451;28;45429;-63
2021/07/15 06:00:08;;;;;;;;;13.33;12.67;;;;;18.99;65.79;101439.31;5035978;28;45462;-64
2021/07/15 06:02:33;;;;;;;;;12.67;12.00;;;;;19.01;66.17;101441.84;5035223;28;45385;-64
2021/07/15 06:04:59;;;;;;;;;10.33;10.00;;;;;19.04;65.88;101434.38;5036395;28;45360;-64
2021/07/15 06:07:24;;;;;;;;;12.00;11.00;;;;;19.11;65.74;101431.94;5036225;28;45525;-64
2021/07/15 06:09:50;;;;;;;;;15.33;11.00;;;;;19.13;65.58;101427.28;5035566;28;46208;-63
2021/07/15 06:12:15;;;;;;;;;11.00;11.00;;;;;19.20;65.35;101432.84;5035364;28;45375;-64
2021/07/15 06:14:40;;;;;;;;;11.67;11.67;;;;;19.26;65.31;101425.06;5035388;28;45449;-64
2021/07/15 06:17:06;;;;;;;;;12.00;8.00;;;;;19.29;64.87;101431.91;5035662;28;45374;-63
2021/07/15 06:19:31;;;;;;;;;11.33;11.00;;;;;19.33;65.15;101435.97;5035184;28;46179;-63
2021/07/15 06:21:56;;;;;;;;;10.00;8.00;;;;;19.36;64.92;101425.00;5035317;28;45320;-62
2021/07/15 06:24:22;;;;;;;;;11.00;8.67;;;;;19.40;64.43;101436.19;5035134;28;45565;-63
2021/07/15 06:26:48;;;;;;;;;11.67;9.00;;;;;19.42;64.88;101440.38;5034878;28;45579;-63
2021/07/15 06:29:14;;;;;;;;;10.67;9.33;;;;;19.43;64.61;101441.19;5034832;28;46091;-63
2021/07/15 06:31:40;;;;;;;;;12.33;11.00;;;;;19.43;64.14;101442.03;5035073;28;45301;-63
2021/07/15 06:34:05;;;;;;;;;13.33;10.67;;;;;19.45;64.49;101439.22;5035347;28;45540;-63
2021/07/15 06:36:32;;;;;;;;;10.67;10.67;;;;;19.46;64.27;101447.06;5034568;28;45551;-62
2021/07/15 06:38:58;;;;;;;;;15.67;12.67;;;;;19.47;64.10;101450.53;5034906;28;46541;-63
2021/07/15 06:41:24;;;;;;;;;14.33;9.67;;;;;19.49;64.00;101453.91;5034498;28;45886;-64
2021/07/15 06:43:50;;;;;;;;;9.33;8.00;;;;;19.51;64.51;101443.91;5050423;28;45443;-63
2021/07/15 06:46:15;;;;;;;;;11.00;10.33;;;;;19.56;65.03;101446.94;5035260;28;45485;-63
2021/07/15 06:48:41;;;;;;;;;10.33;9.00;;;;;19.62;64.36;101449.00;5034335;28;46078;-62
2021/07/15 06:51:07;;;;;;;;;12.33;9.33;;;;;19.71;64.33;101459.72;5034498;28;45484;-63
2021/07/15 06:53:32;;;;;;;;;9.33;9.33;;;;;19.78;63.89;101458.09;5034812;28;45517;-63
2021/07/15 06:55:59;;;;;;;;;10.00;8.00;;;;;19.80;63.50;101450.78;5034187;28;45455;-63
2021/07/15 06:58:24;;;;;;;;;10.00;9.33;;;;;19.85;63.66;101453.84;5035310;28;46122;-64
2021/07/15 07:00:50;;;;;;;;;11.67;10.67;;;;;19.90;63.57;101448.88;5033988;28;45293;-63
2021/07/15 07:03:15;;;;;;;;;90.75;79.00;;;;;19.98;63.07;101452.56;5034831;28;45937;-63
2021/07/15 07:05:41;;;;;;;;;13.00;10.00;;;;;20.12;63.03;101457.31;5034683;28;45471;-65
2021/07/15 07:08:07;;;;;;;;;29.33;24.00;;;;;20.26;63.21;101447.88;5033386;28;45482;-63
2021/07/15 07:10:33;;;;;;;;;42.00;32.00;;;;;20.41;62.68;101453.44;5035135;28;45435;-63
2021/07/15 07:12:59;;;;;;;;;30.33;28.33;;;;;20.54;63.06;101451.16;5036659;28;47503;-64
2021/07/15 07:15:24;;;;;;;;;8.67;8.33;;;;;20.69;62.41;101458.53;5049835;28;45484;-64
2021/07/15 07:17:51;;;;;;;;;10.00;10.00;;;;;20.85;61.66;101452.41;5034131;28;46018;-63
2021/07/15 07:20:17;;;;;;;;;10.00;10.00;;;;;20.98;62.23;101446.59;5033985;28;45481;-65
2021/07/15 07:22:44;;;;;;;;;53.67;42.67;;;;;21.02;60.21;101447.97;5034184;28;45451;-64
2021/07/15 07:25:12;;;;;;;;;61.75;46.00;;;;;21.05;60.32;101452.97;5032780;28;45491;-63
2021/07/15 07:27:38;;;;;;;;;15.67;12.67;;;;;21.15;60.55;101452.78;5034117;28;47051;-63
2021/07/15 07:30:06;;;;;;;;;17.00;16.33;;;;;21.24;61.33;101447.28;5033926;28;45617;-62
2021/07/15 07:32:32;;;;;;;;;15.00;14.00;;;;;21.33;60.43;101450.81;5032700;28;45470;-63
2021/07/15 07:34:57;;;;;;;;;10.00;10.00;;;;;21.37;59.59;101446.78;5030880;28;45501;-62
2021/07/15 07:37:24;;;;;;;;;4.33;4.33;;;;;21.39;59.88;101451.97;5033596;28;46261;-64
2021/07/15 07:39:51;;;;;;;;;11.33;9.00;;;;;21.44;59.03;101446.94;5033258;28;45505;-63
2021/07/15 07:42:16;;;;;;;;;9.67;9.00;;;;;21.44;59.14;101457.63;5033992;28;45597;-64
2021/07/15 07:44:41;;;;;;;;;10.00;10.00;;;;;21.48;59.46;101453.63;5033880;28;45281;-64
2021/07/15 07:47:07;;;;;;;;;10.67;9.00;;;;;21.52;59.69;101460.31;5034184;28;49773;-64
2021/07/15 07:49:32;;;;;;;;;11.00;10.00;;;;;21.57;58.91;101457.97;5034389;28;45348;-64
2021/07/15 07:51:58;;;;;;;;;13.00;10.33;;;;;21.58;59.02;101459.66;5034842;28;45314;-64
2021/07/15 07:54:23;;;;;;;;;10.00;9.00;;;;;21.59;59.04;101455.16;5034340;28;45360;-64
2021/07/15 07:56:48;;;;;;;;;11.33;9.67;;;;;21.61;58.48;101437.09;5033689;28;46943;-63
2021/07/15 07:59:14;;;;;;;;;9.00;9.00;;;;;21.63;58.62;101444.94;5033941;28;45297;-64
2021/07/15 08:01:39;;;;;;;;;12.00;10.67;;;;;21.68;58.85;101447.94;5034116;28;45516;-63
2021/07/15 08:04:06;;;;;;;;;9.33;8.00;;;;;21.71;58.81;101443.09;5033652;28;45539;-63
2021/07/15 08:06:35;;;;;;;;;10.33;9.00;;;;;21.72;58.40;101443.94;5033838;28;46536;-64
2021/07/15 08:09:09;;;;;;;;;7.67;7.00;;;;;21.73;58.44;101453.63;5034297;28;45645;-63
2021/07/15 08:11:35;;;;;;;;;11.00;11.00;;;;;21.76;58.19;101462.13;5037226;28;45464;-63
2021/07/15 08:14:00;;;;;;;;;7.67;7.00;;;;;21.79;57.61;101449.44;5038163;28;45344;-64
2021/07/15 08:16:26;;;;;;;;;10.67;9.00;;;;;21.81;58.22;101456.28;5038338;28;46659;-63
2021/07/15 08:18:52;;;;;;;;;12.33;9.67;;;;;21.80;57.96;101457.28;5037560;28;45320;-63
2021/07/15 08:21:19;;;;;;;;;9.00;9.00;;;;;21.84;57.78;101453.25;5038627;28;45242;-62
2021/07/15 08:23:45;;;;;;;;;11.00;11.00;;;;;21.91;57.84;101459.63;5037685;28;45459;-63
2021/07/15 08:26:11;;;;;;;;;13.00;10.00;;;;;21.97;57.56;101457.25;5037795;28;45332;-63
2021/07/15 08:28:36;;;;;;;;;9.33;9.33;;;;;22.04;57.89;101458.22;5038160;28;45456;-63
2021/07/15 08:31:02;;;;;;;;;10.67;10.00;;;;;22.11;57.70;101443.16;5038597;28;45906;-63
2021/07/15 08:33:27;;;;;;;;;12.67;11.33;;;;;22.11;57.19;101445.84;5037480;28;45475;-63
2021/07/15 08:35:55;;;;;;;;;11.33;9.00;;;;;22.09;57.21;101446.03;5037514;28;45375;-63
2021/07/15 08:38:21;;;;;;;;;4.67;3.00;;;;;22.11;57.20;101437.81;5037715;28;45439;-64
2021/07/15 08:40:47;;;;;;;;;13.67;11.67;;;;;22.12;57.53;101439.50;5037499;28;45285;-65
2021/07/15 08:43:14;;;;;;;;;11.00;9.00;;;;;22.16;56.75;101450.66;5038492;28;45546;-64
2021/07/15 08:45:40;;;;;;;;;11.00;10.00;;;;;22.11;57.13;101440.50;5037736;28;46139;-63
2021/07/15 08:48:07;;;;;;;;;5.67;5.00;;;;;22.12;56.44;101430.63;5037331;28;45415;-63
2021/07/15 08:50:33;;;;;;;;;50.33;36.00;;;;;22.08;56.01;101439.00;5037458;28;45565;-64
2021/07/15 08:52:59;;;;;;;;;54.67;43.67;;;;;22.11;56.51;101437.81;5037551;28;45300;-62
2021/07/15 08:58:10;;;;;;;;;9.00;9.00;;;;;22.12;55.72;101438.63;5037642;28;45371;-64
2021/07/15 09:00:36;;;;;;;;;8.00;7.67;;;;;22.08;56.57;101443.50;5037218;28;45382;-63
2021/07/15 09:03:01;;;;;;;;;19.00;17.67;;;;;22.13;56.85;101445.66;5037433;28;45443;-63
2021/07/15 09:05:27;;;;;;;;;27.00;20.33;;;;;22.22;56.70;101449.97;5037185;28;46078;-64
2021/07/15 09:07:52;;;;;;;;;9.67;9.67;;;;;22.30;56.53;101443.75;5037275;28;45294;-63
2021/07/15 09:10:18;;;;;;;;;9.00;9.00;;;;;22.39;55.50;101450.75;5037724;28;45336;-64
2021/07/15 09:12:43;;;;;;;;;40.00;34.33;;;;;22.43;55.09;101457.44;5035539;28;45478;-63
2021/07/15 09:15:14;;;;;;;;;9.67;9.67;;;;;22.48;55.04;101443.53;5035208;28;45525;-64
2021/07/15 09:17:39;;;;;;;;;19.00;17.67;;;;;22.51;54.35;101449.38;5036631;28;45450;-64
2021/07/15 09:20:08;;;;;;;;;9.00;9.00;;;;;22.51;54.13;101453.88;5037024;28;45578;-63
2021/07/15 09:22:33;;;;;;;;;9.67;7.67;;;;;22.52;53.46;101459.09;5037291;28;45454;-63
2021/07/15 09:25:00;;;;;;;;;9.00;7.00;;;;;22.59;53.80;101445.81;5036710;28;45267;-64
2021/07/15 09:27:28;;;;;;;;;8.00;8.00;;;;;22.80;53.71;101442.50;5036732;28;45854;-63
2021/07/15 09:30:10;;;;;;;;;8.00;8.00;;;;;23.04;53.51;101444.19;5036855;28;45250;-63
2021/07/15 09:32:53;;;;;;;;;7.00;7.00;;;;;23.29;52.86;101448.53;5037123;28;45494;-63
2021/07/15 09:35:26;;;;;;;;;11.00;9.00;;;;;23.41;52.84;101449.78;5028628;28;46711;-64
2021/07/15 09:37:54;;;;;;;;;7.00;6.33;;;;;23.47;51.70;101443.69;5036909;28;45403;-64
2021/07/15 09:40:39;;;;;;;;;8.33;8.33;;;;;23.50;52.93;101453.22;5037801;28;45306;-62
2021/07/15 09:43:14;;;;;;;;;10.33;9.00;;;;;23.51;52.49;101455.72;5036302;28;45558;-64
2021/07/15 09:45:40;;;;;;;;;6.67;6.67;;;;;23.50;51.93;101451.38;5036205;28;46676;-64
2021/07/15 09:48:13;;;;;;;;;11.67;9.00;;;;;23.53;50.83;101456.38;5036195;28;45466;-64
2021/07/15 09:50:39;;;;;;;;;10.33;8.33;;;;;23.58;51.40;101455.00;5036619;28;45344;-65
2021/07/15 09:53:34;;;;;;;;;8.33;7.00;;;;;23.59;50.82;101462.00;5036460;28;45459;-64
2021/07/15 09:56:26;;;;;;;;;11.33;8.67;;;;;23.68;51.32;101461.75;5011979;28;45472;-62
2021/07/15 09:58:54;;;;;;;;;14.00;9.00;;;;;23.77;52.08;101462.50;5033678;28;45340;-62
2021/07/15 10:01:22;;;;;;;;;9.00;8.33;;;;;23.84;51.35;101463.41;5037056;28;45404;-63
2021/07/15 10:03:53;;;;;;;;;11.00;11.00;;;;;23.86;51.00;101464.09;5035958;28;45504;-65
2021/07/15 10:06:19;;;;;;;;;8.00;7.00;;;;;23.88;50.55;101456.69;5034874;28;46310;-63
2021/07/15 10:08:50;;;;;;;;;9.67;9.00;;;;;23.84;50.32;101455.38;5035693;28;45403;-63
2021/07/15 10:11:28;;;;;;;;;9.00;9.00;;;;;23.84;50.96;101460.75;5036641;28;45482;-63
2021/07/15 10:14:01;;;;;;;;;9.00;8.00;;;;;23.84;51.04;101455.38;5035988;28;45620;-64
2021/07/15 10:16:31;;;;;;;;;16.00;16.00;;;;;23.93;51.01;101453.47;5032320;28;46128;-63
2021/07/15 10:18:57;;;;;;;;;47.75;38.50;;;;;24.00;51.18;101458.94;5035646;28;45505;-65
2021/07/15 10:21:34;;;;;;;;;12.67;10.67;;;;;24.03;50.49;101458.56;5036248;28;45407;-64
2021/07/15 10:24:17;;;;;;;;;13.00;13.00;;;;;24.01;50.77;101476.69;5035665;28;45509;-64
2021/07/15 10:26:47;;;;;;;;;10.00;9.00;;;;;23.95;50.03;101462.19;5025637;28;46117;-64
2021/07/15 10:29:15;;;;;;;;;11.33;10.00;;;;;23.95;50.64;101466.69;5035594;28;45355;-64
2021/07/15 10:31:40;;;;;;;;;11.00;9.00;;;;;23.97;51.24;101464.69;5035961;28;45409;-62
2021/07/15 10:34:06;;;;;;;;;7.67;7.67;;;;;24.00;51.23;101461.59;5035776;28;45300;-64
2021/07/15 10:36:33;;;;;;;;;7.33;7.00;;;;;24.07;51.20;101459.88;5035140;28;47084;-64
2021/07/15 10:39:00;;;;;;;;;12.67;8.33;;;;;24.13;51.28;101464.50;5035707;28;45347;-63
2021/07/15 10:41:27;;;;;;;;;9.00;9.00;;;;;24.15;51.07;101473.16;5035928;28;45272;-63
2021/07/15 10:43:53;;;;;;;;;12.00;10.67;;;;;24.19;49.73;101474.47;5035399;28;46129;-63
2021/07/15 10:46:19;;;;;;;;;8.00;8.00;;;;;24.17;50.27;101468.47;5036213;28;45444;-63
2021/07/15 10:48:46;;;;;;;;;5.33;5.33;;;;;24.18;50.50;101471.97;5033727;28;45643;-63
2021/07/15 10:51:12;;;;;;;;;10.00;10.00;;;;;24.21;49.80;101471.63;5035350;28;45423;-64
2021/07/15 10:53:40;;;;;;;;;7.00;7.00;;;;;24.18;49.60;101463.91;5034920;28;45488;-64
2021/07/15 10:56:06;;;;;;;;;11.33;9.33;;;;;24.21;50.63;101466.25;5035358;28;47134;-62
2021/07/15 10:58:44;;;;;;;;;10.00;10.00;;;;;24.28;50.67;101479.75;5035697;28;45382;-65
2021/07/15 11:01:37;;;;;;;;;10.33;9.00;;;;;24.34;50.66;101470.97;5036130;28;45218;-64
2021/07/15 11:04:14;;;;;;;;;10.33;10.33;;;;;24.42;50.33;101475.38;5034224;28;45510;-64
2021/07/15 11:06:50;;;;;;;;;8.00;8.00;;;;;24.43;50.21;101469.81;5034583;28;45585;-62
2021/07/15 11:09:31;;;;;;;;;8.67;8.67;;;;;24.45;50.04;101462.41;5035313;28;45328;-63
2021/07/15 11:11:58;;;;;;;;;10.67;7.67;;;;;24.43;49.44;101475.19;5050346;28;45524;-64
2021/07/15 11:14:41;;;;;;;;;8.67;7.00;;;;;24.40;48.94;101472.88;5033372;28;46604;-63
2021/07/15 11:17:25;;;;;;;;;8.67;8.00;;;;;24.30;49.17;101470.50;5034295;28;46624;-64
2021/07/15 11:20:07;;;;;;;;;9.00;8.00;;;;;24.29;49.50;101465.31;5034811;28;45568;-64
2021/07/15 11:22:45;;;;;;;;;8.67;8.67;;;;;24.34;49.85;101476.31;5032017;28;45371;-63